Terminal Aerodrome Forecast
Issued by NWS Wilmington, NC

Home | Current Version | Previous Version | Text Only | Print | Product List | Glossary On
Versions: 1 2 3 4 5 6 7 8 9 10 11 12 13 14 15 16 17 18 19 20 21 22 23 24 25
848
FTUS42 KILM 011422 AAA
TAFFLO
TAF AMD
KFLO 011422Z 0114/0212 16005KT P6SM VCSH SCT025 BKN050 BKN130
      TEMPO 0114/0116 VRB10G15KT 4SM -TSRA BR SCT020CB BKN030
     FM011600 18012KT P6SM VCSH SCT025 SCT150 BKN250
     FM011800 20012KT P6SM BKN035
     FM020000 19008KT P6SM SCT070 BKN250
     FM020500 21006KT P6SM VCSH SCT015 BKN050=

USA.gov is the U.S. government's official web portal to all federal, state and local government web resources and services.